Date,TemperatureHighF,TemperatureAvgF,TemperatureLowF,DewpointHighF,DewpointAvgF,DewpointLowF,HumidityHigh,HumidityAvg,HumidityLow,PressureMaxIn,PressureMinIn,WindSpeedMaxMPH,WindSpeedAvgMPH,GustSpeedMaxMPH,PrecipitationSumIn
2013-1-1,42.1,38.2,30.9,31.9,29.3,23.2,79,70,60,30.00,29.91,6,0,14,0.00
2013-1-2,38.3,34.5,28.3,31.2,23.4,17.2,80,64,50,30.23,29.98,10,2,15,0.00
2013-1-3,42.1,31.2,22.5,26.1,20.6,16.4,81,65,46,30.24,30.12,8,0,12,0.00
2013-1-4,43.8,36.7,30.3,27.6,23.1,20.9,70,58,45,30.20,30.10,16,4,21,0.00
2013-1-5,47.4,39.7,33.2,27.5,23.8,20.8,67,53,39,30.37,30.14,10,1,15,0.00
2013-1-6,47.5,40.3,30.6,33.7,29.8,25.5,85,67,53,30.16,30.01,21,1,21,0.00
2013-1-7,44.3,38.9,29.7,32.9,28.3,24.3,83,66,53,30.45,30.14,17,3,22,0.00
2013-1-8,57.0,40.4,28.5,36.6,30.5,23.4,87,69,40,30.39,30.31,9,1,12,0.00
2013-1-9,54.8,42.3,28.8,46.2,34.5,25.1,91,76,40,30.39,30.22,12,2,19,0.00
2013-1-10,56.5,48.4,42.5,34.9,31.8,28.5,64,53,41,30.58,30.39,14,2,21,0.00
2013-1-11,52.9,44.8,40.8,44.2,36.6,30.7,94,74,57,30.44,30.07,16,3,21,0.09
2013-1-12,58.7,46.7,40.3,52.3,44.5,39.0,97,92,79,30.16,30.06,4,0,5,0.00
2013-1-13,64.1,53.2,43.5,56.8,50.1,42.2,96,90,75,30.07,29.90,9,1,11,0.01
2013-1-14,65.1,53.2,40.1,59.0,46.2,36.4,92,77,63,30.31,29.90,14,3,22,0.23
2013-1-15,40.1,38.2,35.4,38.0,36.2,33.8,94,92,89,30.35,30.13,9,1,10,0.50
2013-1-16,40.8,37.9,34.5,39.5,36.5,33.2,96,95,94,30.15,29.82,10,1,13,0.76
2013-1-17,44.3,40.4,35.6,40.1,33.8,28.9,95,78,57,30.11,29.97,8,2,13,0.00
2013-1-18,41.3,35.8,31.5,30.9,20.8,14.9,78,55,34,30.48,30.08,19,4,22,0.00
2013-1-19,58.7,44.6,30.2,34.1,26.8,22.3,73,51,31,30.37,29.91,18,6,26,0.00
2013-1-20,56.8,45.7,36.1,35.2,22.5,9.9,70,42,22,30.06,29.82,25,6,33,0.00
2013-1-21,46.2,34.5,27.9,24.0,18.2,10.7,67,52,33,30.07,29.78,17,3,26,0.00
2013-1-22,28.4,20.5,15.9,12.9,1.9,-1.9,54,44,35,30.29,29.96,19,6,33,0.00
2013-1-23,27.1,21.2,14.5,15.9,4.7,1.8,81,49,35,30.34,30.11,14,3,17,0.00
2013-1-24,26.9,21.3,15.2,16.9,10.9,5.1,88,66,41,30.54,30.07,17,4,22,0.00
2013-1-25,24.7,19.3,12.2,20.3,12.6,5.3,92,75,54,30.53,30.05,11,1,15,0.00
2013-1-26,34.4,28.2,21.7,28.0,22.8,18.3,90,81,66,30.43,30.07,7,1,15,0.03
2013-1-27,39.6,31.9,24.5,25.3,20.9,16.1,77,64,51,30.58,30.43,9,2,13,0.00
2013-1-28,53.2,41.5,31.2,46.5,36.8,25.1,94,83,74,30.43,30.03,11,2,12,0.24
2013-1-29,73.7,60.1,50.0,57.5,51.8,44.6,91,75,55,30.08,29.89,11,2,13,0.00
2013-1-30,74.4,60.0,51.7,61.9,55.2,47.9,97,85,65,29.89,29.20,28,4,39,1.67
2013-1-31,56.6,40.1,30.8,55.5,28.0,16.5,97,62,48,29.89,29.14,25,10,36,0.48
2013-2-1,31.8,24.9,17.2,25.1,12.5,5.6,87,60,43,30.39,29.80,25,7,29,0.00
2013-2-2,31.1,22.7,13.7,24.0,14.8,6.8,83,72,53,30.39,30.00,10,1,11,0.00
2013-2-3,35.0,30.7,26.3,30.6,25.2,15.4,90,80,52,30.00,29.80,22,3,28,0.01
2013-2-4,40.1,30.2,23.4,23.5,16.5,13.4,70,57,45,30.09,29.87,16,4,24,0.02
2013-2-5,40.9,36.3,30.8,34.5,31.2,22.5,91,82,68,29.93,29.82,5,1,6,0.07
2013-2-6,47.0,37.9,28.5,34.6,29.9,24.3,93,74,51,30.33,29.92,16,3,17,0.03
2013-2-7,39.1,34.0,25.0,29.8,26.3,21.5,88,74,61,30.41,30.17,17,4,21,0.00
2013-2-8,42.6,36.5,32.7,37.7,31.1,23.3,93,81,62,30.17,29.78,24,4,31,0.11
2013-2-9,42.1,34.8,26.2,23.7,20.2,16.2,70,56,39,30.40,30.00,20,7,32,0.00
2013-2-10,46.3,34.3,19.1,30.2,20.4,14.5,86,59,39,30.46,30.16,16,3,20,0.01
2013-2-11,67.4,51.8,37.4,53.2,38.8,25.8,100,66,25,30.16,29.67,23,6,31,0.05
2013-2-12,60.6,50.3,40.3,31.0,28.0,24.3,57,43,27,29.95,29.81,27,5,37,0.00
2013-2-13,44.6,36.5,29.8,35.3,29.6,24.0,93,77,57,29.92,29.66,10,1,11,0.07
2013-2-14,51.1,40.6,32.3,35.0,31.0,26.7,94,70,48,30.00,29.78,11,2,13,0.12
2013-2-15,57.1,40.6,31.3,38.8,32.9,26.1,93,76,45,30.02,29.89,11,2,20,0.25
2013-2-16,38.7,34.5,29.3,33.8,26.4,15.6,94,74,55,29.98,29.87,13,3,18,0.00
2013-2-17,30.4,26.5,23.9,17.0,12.3,8.1,68,55,44,30.24,29.87,26,7,30,0.00
2013-2-18,46.4,33.6,19.8,23.1,15.2,8.7,68,48,30,30.38,30.09,16,2,21,0.01
2013-2-19,55.4,43.8,37.6,41.8,31.5,22.9,85,62,49,30.09,29.64,25,7,35,0.06
2013-2-20,39.9,33.2,25.6,23.2,17.2,13.7,61,52,42,30.18,29.84,22,9,29,0.00
2013-2-21,39.3,30.3,24.0,21.0,16.7,12.2,71,57,46,30.34,30.14,15,4,20,0.00
2013-2-22,34.4,31.5,27.1,29.5,24.5,18.7,83,75,64,30.37,30.15,11,4,15,0.00
2013-2-23,51.5,40.7,34.1,42.8,35.1,29.4,92,81,69,30.16,29.81,6,1,9,0.00
2013-2-24,51.9,41.4,31.8,40.9,30.7,19.7,95,68,39,30.13,29.80,17,5,25,0.00
2013-2-25,46.5,35.8,25.7,26.4,22.7,18.8,78,60,40,30.22,30.12,9,1,11,0.00
2013-2-26,40.9,34.9,26.6,39.6,30.6,21.2,95,85,65,30.19,29.62,10,3,16,0.75
2013-2-27,54.4,45.4,38.5,45.3,37.2,33.3,96,75,53,29.68,29.57,20,4,24,0.02
2013-2-28,45.1,41.8,37.8,35.7,30.0,27.2,76,63,53,29.74,29.62,21,5,23,0.00
2013-3-1,42.0,38.5,32.8,30.3,28.1,24.8,73,66,59,29.91,29.74,14,5,17,0.00
2013-3-2,36.6,33.3,30.9,27.0,23.2,20.7,77,66,58,29.91,29.83,13,4,18,0.00
2013-3-3,39.7,33.5,29.9,24.4,20.7,18.0,69,59,48,29.95,29.83,21,7,27,0.00
2013-3-4,44.9,35.2,27.0,22.5,18.0,14.5,62,50,34,30.05,29.95,22,6,25,0.00
2013-3-5,52.8,41.6,33.1,31.9,23.6,18.6,91,51,32,30.06,29.75,15,4,25,0.00
2013-3-6,40.3,36.3,33.5,36.0,32.8,30.8,95,88,69,30.03,29.66,16,4,24,0.78
2013-3-7,46.0,41.0,38.0,31.1,29.8,28.5,74,64,52,30.18,30.03,19,5,22,0.00
2013-3-8,44.7,39.3,35.6,31.9,29.0,26.4,74,66,59,30.33,30.17,21,8,28,0.00
2013-3-9,59.0,42.8,27.6,33.8,28.2,24.1,88,60,29,30.38,30.24,9,1,11,0.00
2013-3-10,63.7,48.4,32.0,36.0,30.5,25.9,82,53,32,30.28,30.14,17,4,19,0.00
2013-3-11,59.3,51.8,43.7,50.1,38.6,27.4,80,62,41,30.14,29.82,17,5,21,0.00
2013-3-12,59.3,51.7,40.5,53.0,44.0,30.1,94,76,55,29.97,29.71,25,6,30,0.60
2013-3-13,48.5,40.0,32.2,33.5,26.7,20.1,82,60,38,30.08,29.90,28,6,29,0.00
2013-3-14,44.9,37.7,31.1,23.2,20.1,16.9,64,49,39,30.16,30.05,26,9,30,0.00
2013-3-15,60.0,46.2,32.4,38.3,27.6,19.2,66,49,37,30.09,29.76,15,4,24,0.00
2013-3-16,58.1,45.0,36.9,48.0,38.8,33.0,89,79,66,29.91,29.59,14,2,17,0.03
2013-3-17,39.6,37.8,35.2,34.7,31.2,27.0,88,77,63,30.25,29.91,11,2,14,0.00
2013-3-18,35.2,33.8,31.9,32.6,31.3,29.4,93,90,83,30.28,29.88,14,3,17,0.29
2013-3-19,58.2,44.1,33.6,43.7,28.3,12.0,95,62,23,29.92,29.70,34,7,41,0.16
2013-3-20,52.8,43.4,35.4,30.8,19.0,13.0,77,38,25,29.98,29.74,34,8,35,0.00
2013-3-21,36.2,32.3,28.4,28.9,17.6,12.7,75,55,40,29.92,29.79,19,6,28,0.00
2013-3-22,48.6,37.5,28.6,24.6,19.3,12.9,63,48,36,30.00,29.87,15,5,22,0.00
2013-3-23,55.4,41.2,23.7,27.4,23.3,18.5,84,52,28,30.03,29.90,14,2,17,0.00
2013-3-24,41.4,34.9,29.2,31.5,27.0,23.1,93,74,52,29.99,29.62,7,1,12,0.00
2013-3-25,42.2,35.9,32.6,36.1,33.3,31.1,96,90,75,29.70,29.52,4,0,6,0.61
2013-3-26,48.2,40.8,33.8,35.6,31.5,28.8,99,71,52,30.03,29.70,20,4,24,0.00
2013-3-27,46.9,41.3,37.1,33.7,29.3,25.8,71,62,51,30.13,30.01,20,7,27,0.00
2013-3-28,49.2,43.1,39.2,33.5,30.1,27.5,65,60,52,30.23,30.09,17,6,22,0.00
2013-3-29,56.2,47.0,39.2,37.4,31.2,27.7,75,56,36,30.25,30.13,14,2,17,0.00
2013-3-30,60.9,46.9,33.4,35.1,29.5,26.5,78,53,29,30.23,30.07,11,1,17,0.00
2013-3-31,51.3,46.3,40.9,47.1,39.2,29.1,92,77,50,30.07,29.73,8,1,11,0.12
2013-4-1,61.1,48.8,40.9,46.2,37.6,21.9,94,67,44,29.98,29.73,21,5,30,0.00
2013-4-2,49.2,41.8,35.3,22.1,18.5,14.4,53,40,28,30.17,29.98,16,5,25,0.00
2013-4-3,52.0,40.1,28.4,25.0,19.1,15.4,73,45,26,30.38,30.17,17,4,25,0.00
2013-4-4,49.7,37.7,22.7,34.2,20.6,15.9,86,53,29,30.40,30.04,12,2,16,0.03
2013-4-5,65.2,49.6,36.0,45.0,33.6,26.4,94,61,29,30.05,29.81,17,4,21,0.02
2013-4-6,58.4,47.4,32.7,29.3,24.5,18.9,69,42,26,30.31,30.05,14,4,19,0.00
2013-4-7,72.3,58.4,41.7,45.8,39.5,28.2,69,51,37,30.19,29.92,23,8,29,0.00
2013-4-8,80.0,69.5,54.2,55.2,48.0,44.5,77,48,32,30.04,29.88,17,4,23,0.00
2013-4-9,84.6,74.5,61.1,60.1,54.6,50.2,72,51,38,30.05,29.87,14,4,20,0.00
2013-4-10,89.5,78.4,65.6,63.1,56.4,51.5,69,48,33,29.93,29.72,17,4,22,0.00
2013-4-11,85.7,73.9,57.2,63.2,57.8,52.1,86,59,42,29.84,29.65,18,4,23,0.00
2013-4-12,78.7,63.4,54.7,64.7,56.3,41.5,97,79,44,29.76,29.50,15,4,21,0.48
2013-4-13,70.8,59.4,47.4,44.5,37.5,30.7,76,46,26,29.94,29.75,18,5,28,0.00
2013-4-14,67.9,56.1,41.6,46.2,39.7,30.8,76,55,40,30.12,29.93,14,3,17,0.00
2013-4-15,63.7,59.0,55.3,53.0,49.2,43.0,86,71,53,30.23,30.06,20,7,24,0.00
2013-4-16,74.6,65.3,55.4,62.4,57.4,51.0,89,77,61,30.23,30.05,18,7,25,0.00
2013-4-17,75.6,65.9,57.3,65.7,60.7,55.9,97,84,66,30.17,30.07,12,3,25,0.16
2013-4-18,75.8,67.7,60.3,65.2,59.7,57.2,92,77,59,30.16,29.89,24,7,25,0.01
2013-4-19,76.7,67.7,53.8,66.0,59.1,40.7,92,74,59,29.89,29.53,22,7,30,0.49
2013-4-20,60.0,52.2,44.2,41.2,32.3,26.7,64,47,34,30.34,29.76,23,8,30,0.00
2013-4-21,53.4,45.7,37.1,34.0,28.8,24.8,69,52,38,30.58,30.35,12,3,18,0.00
2013-4-22,57.1,46.5,35.0,38.8,34.5,29.1,84,64,46,30.54,30.35,13,3,16,0.00
2013-4-23,61.3,49.5,38.9,47.4,41.3,34.5,86,74,59,30.37,30.07,13,2,14,0.00
2013-4-24,78.5,60.3,42.2,60.7,50.5,40.0,94,73,43,30.08,29.72,24,5,31,0.06
2013-4-25,66.4,55.0,44.5,43.8,35.5,29.0,68,50,26,30.30,30.02,14,3,21,0.00
2013-4-26,65.5,53.6,40.2,43.6,38.0,32.0,82,57,37,30.45,30.29,10,2,13,0.00
2013-4-27,71.2,58.0,40.7,48.9,42.7,36.2,86,59,38,30.38,30.22,13,3,17,0.00
2013-4-28,59.3,55.1,52.3,51.5,46.9,42.6,89,74,55,30.22,30.08,13,3,16,0.08
2013-4-29,63.6,57.1,53.4,58.6,53.5,47.7,93,88,73,30.10,29.98,10,3,13,0.03
2013-4-30,61.5,57.3,54.2,57.6,54.7,51.3,96,91,84,30.27,30.06,11,4,16,0.00
2013-5-1,70.9,61.0,52.5,51.0,44.6,37.6,88,58,32,30.38,30.26,14,3,16,0.00
2013-5-2,69.0,57.6,41.4,51.5,45.4,38.4,92,66,40,30.40,30.28,14,3,16,0.00
2013-5-3,69.7,55.4,40.7,52.9,45.0,38.4,95,70,43,30.35,30.23,14,4,18,0.00
2013-5-4,67.9,55.2,40.8,50.7,43.9,36.7,91,68,45,30.30,30.13,14,4,19,0.00
2013-5-5,64.4,53.5,41.6,45.5,42.1,37.3,88,67,47,30.21,30.09,14,4,17,0.00
2013-5-6,58.8,53.3,47.1,57.7,50.7,42.7,96,91,77,30.15,30.01,11,3,14,0.08
2013-5-7,62.0,59.3,55.7,61.1,58.3,54.3,98,96,94,30.01,29.87,14,6,17,0.71
2013-5-8,70.8,58.2,51.9,59.2,54.2,50.7,98,87,58,29.99,29.89,11,2,15,0.50
2013-5-9,75.8,62.0,48.8,61.4,55.3,47.4,97,81,54,29.99,29.89,13,2,17,0.01
2013-5-10,84.5,67.7,52.6,65.8,58.2,50.3,95,75,40,29.98,29.80,16,2,29,0.54
2013-5-11,77.1,67.6,61.4,66.9,60.5,53.9,96,80,56,29.84,29.68,18,3,22,0.02
2013-5-12,64.2,57.7,46.6,54.3,39.6,30.8,72,52,36,30.02,29.74,19,6,27,0.00
2013-5-13,59.6,50.0,42.2,37.3,33.2,28.2,77,54,32,30.17,30.01,19,4,26,0.00
2013-5-14,65.9,52.0,32.8,43.4,37.5,29.4,91,61,36,30.21,29.97,9,1,14,0.00
2013-5-15,92.4,69.7,48.2,67.3,53.1,42.9,89,59,30,29.98,29.64,20,4,34,0.00
2013-5-16,80.1,74.8,67.9,66.1,59.3,53.5,86,59,42,29.92,29.72,13,4,23,0.07
2013-5-17,82.2,70.2,54.8,65.3,58.8,52.5,94,69,48,30.07,29.91,11,2,13,0.00
2013-5-18,66.7,63.6,61.3,61.6,59.1,56.8,93,85,77,30.17,30.05,14,5,20,0.00
2013-5-19,71.0,64.9,59.2,65.5,61.6,57.8,95,89,81,30.16,30.03,12,4,15,0.00
2013-5-20,81.7,72.2,63.2,71.2,67.2,62.0,97,85,69,30.06,29.92,11,2,13,0.08
2013-5-21,87.6,75.6,62.7,74.0,68.2,60.8,95,79,57,29.96,29.81,12,3,15,0.00
2013-5-22,89.6,75.7,66.0,72.4,67.7,64.2,96,78,48,29.88,29.75,20,3,28,0.70
2013-5-23,78.9,67.4,61.5,70.0,64.8,60.3,97,92,72,29.85,29.72,14,2,24,1.71
2013-5-24,62.2,55.5,46.7,61.3,46.6,34.0,97,73,52,30.20,29.74,19,6,29,0.00
2013-5-25,64.9,54.0,43.2,43.4,37.8,32.5,67,55,40,30.23,30.11,17,6,25,0.00
2013-5-26,71.9,59.6,43.4,43.2,39.8,35.7,79,51,27,30.22,30.11,16,3,19,0.00
2013-5-27,65.6,56.8,43.1,54.8,48.3,39.5,90,74,55,30.27,30.16,5,0,7,0.00
2013-5-28,82.4,67.3,53.2,69.1,60.7,51.1,96,81,58,30.17,30.00,12,2,15,0.04
2013-5-29,88.1,77.6,67.2,70.7,66.4,62.1,91,70,47,30.09,30.01,17,3,17,0.00
2013-5-30,90.7,79.0,65.8,72.6,66.7,62.1,91,67,44,30.15,30.05,10,2,13,0.00
2013-5-31,89.7,78.5,64.7,70.1,65.7,60.5,90,66,43,30.11,29.96,9,2,16,0.00
2013-6-1,89.2,79.8,68.1,72.3,67.7,63.1,87,68,51,30.00,29.85,17,3,19,0.00
2013-6-2,82.7,74.9,69.4,73.0,67.5,63.0,95,79,63,29.85,29.79,14,4,19,0.45
2013-6-3,79.3,70.6,65.4,70.5,66.5,57.4,98,88,66,29.95,29.82,10,1,15,0.47
2013-6-4,75.0,67.1,55.9,57.8,52.0,46.9,87,60,44,30.12,29.96,9,2,13,0.02
2013-6-5,78.0,66.4,53.8,63.5,57.5,51.1,93,75,52,30.14,29.99,15,4,18,0.00
2013-6-6,68.1,64.7,62.5,64.9,59.9,53.5,97,85,70,30.00,29.81,12,3,15,0.68
2013-6-7,67.4,65.8,64.2,66.5,64.9,63.1,98,97,94,29.81,29.61,11,2,12,0.46
2013-6-8,80.2,70.5,61.9,68.3,63.3,59.3,94,79,56,30.06,29.72,7,1,12,0.00
2013-6-9,77.2,69.8,60.7,72.0,65.4,58.7,96,86,73,30.16,30.04,8,2,12,0.06
2013-6-10,80.1,71.0,66.5,74.5,68.9,65.0,97,93,80,30.05,29.75,14,2,14,0.57
2013-6-11,81.9,72.9,64.0,70.4,65.5,62.5,96,79,61,29.83,29.76,17,4,23,0.00
2013-6-12,88.0,78.3,66.0,75.6,68.4,61.8,89,73,55,29.85,29.74,11,2,16,0.00
2013-6-13,81.9,71.3,66.7,72.2,66.7,58.3,96,86,68,29.75,29.45,15,4,52,1.04
2013-6-14,78.6,69.8,62.1,60.7,56.6,53.9,77,64,46,29.98,29.63,20,5,24,0.00
2013-6-15,82.6,71.6,58.1,65.8,58.6,54.2,90,66,39,30.07,29.96,11,2,16,0.00
2013-6-16,80.7,72.1,61.3,69.8,63.4,57.4,89,75,63,30.00,29.86,12,2,19,0.00
2013-6-17,87.8,76.9,67.1,73.0,68.3,62.8,93,76,54,29.94,29.83,10,3,12,0.10
2013-6-18,75.2,69.8,66.7,70.4,67.3,64.9,96,92,79,29.88,29.76,6,2,11,0.43
2013-6-19,76.0,69.2,63.8,66.6,63.7,61.0,96,83,64,30.12,29.86,7,2,10,0.00
2013-6-20,78.6,69.9,61.8,68.4,63.9,60.0,97,82,64,30.21,30.11,18,4,22,0.00
2013-6-21,82.0,72.4,60.5,68.0,61.4,55.4,90,69,57,30.25,30.17,13,3,15,0.00
2013-6-22,87.1,74.9,61.7,72.1,65.6,58.7,90,74,53,30.21,30.07,10,2,14,0.00
2013-6-23,88.4,76.8,64.8,73.0,68.1,63.0,97,76,50,30.14,30.03,7,1,9,0.00
2013-6-24,90.1,77.8,68.8,75.8,69.4,64.3,88,76,54,30.10,29.99,14,2,32,0.02
2013-6-25,92.0,80.3,67.7,76.5,69.8,62.3,92,72,51,30.01,29.86,12,2,15,0.00
2013-6-26,89.3,76.3,66.8,77.0,69.5,62.3,93,80,59,29.89,29.79,12,2,17,0.40
2013-6-27,82.3,74.7,68.3,76.1,70.8,67.1,97,88,74,29.80,29.59,14,2,16,0.68
2013-6-28,87.5,76.1,68.9,74.8,68.3,62.5,93,77,58,29.61,29.45,14,2,22,0.39
2013-6-29,86.8,74.7,64.7,69.3,65.1,61.3,95,74,48,29.68,29.49,10,2,21,0.36
2013-6-30,86.9,75.1,66.2,75.5,69.9,65.0,98,85,64,29.80,29.66,16,2,19,0.00
2013-7-1,82.1,75.9,71.1,73.8,70.9,68.5,93,85,73,29.91,29.78,15,4,18,0.03
2013-7-2,82.2,76.1,72.2,74.2,71.4,69.1,96,86,73,30.10,29.91,13,3,17,0.04
2013-7-3,82.7,76.5,72.3,75.4,72.1,68.9,95,87,75,30.18,30.09,12,2,17,0.10
2013-7-4,87.1,79.1,70.2,76.9,72.5,68.1,95,81,65,30.20,30.11,14,3,18,0.00
2013-7-5,89.2,80.6,69.6,76.2,72.1,67.8,96,77,59,30.17,30.07,16,4,23,0.00
2013-7-6,90.3,80.9,70.8,76.8,72.4,68.2,93,76,59,30.15,30.01,11,2,16,0.00
2013-7-7,90.9,77.2,70.6,76.6,70.9,67.4,95,82,57,30.06,29.95,23,2,36,0.07
2013-7-8,85.9,76.0,67.4,72.8,69.0,65.8,96,81,56,30.09,30.00,11,3,16,0.00
2013-7-9,85.7,77.0,70.4,74.6,70.8,68.0,94,82,65,30.08,29.96,13,2,16,0.00
2013-7-10,86.1,78.1,73.3,76.3,72.4,69.3,93,83,67,29.97,29.82,15,2,17,0.00
2013-7-11,83.9,77.1,71.1,72.1,70.1,67.3,93,80,63,29.90,29.81,9,2,12,0.04
2013-7-12,72.0,68.2,65.0,69.6,66.4,63.8,97,94,88,30.05,29.89,6,1,9,0.90
2013-7-13,83.1,74.7,67.2,73.4,70.1,66.3,98,86,69,30.22,30.03,12,3,12,0.01
2013-7-14,88.6,79.4,70.1,77.1,72.3,68.9,97,81,59,30.30,30.21,12,2,12,0.03
2013-7-15,93.3,80.1,68.0,77.5,72.2,66.5,97,79,53,30.28,30.16,7,1,11,0.00
2013-7-16,92.2,82.3,72.1,79.5,74.3,70.3,95,78,59,30.24,29.88,9,2,13,0.00
2013-7-17,93.6,83.0,73.2,78.4,74.7,71.3,95,78,55,30.27,30.06,10,2,12,0.00
2013-7-18,95.7,84.5,74.1,79.9,76.1,72.3,95,77,53,30.27,29.96,7,1,11,0.00
2013-7-19,94.6,82.1,73.9,79.9,74.8,69.4,95,80,55,29.98,29.83,14,2,24,0.00
2013-7-20,91.3,80.2,71.6,76.4,72.0,68.6,94,77,55,29.87,29.75,13,4,19,0.00
2013-7-21,90.1,76.4,68.6,74.6,70.8,66.5,95,84,55,29.93,29.85,10,1,13,0.20
2013-7-22,86.7,75.0,69.7,77.3,72.1,68.8,98,91,68,29.90,29.70,13,2,24,0.61
2013-7-23,87.6,78.1,70.7,75.5,71.0,68.3,98,81,57,29.73,29.62,16,2,18,0.01
2013-7-24,80.7,74.3,67.7,69.8,65.4,59.4,91,74,58,29.90,29.66,11,2,16,0.00
2013-7-25,77.5,68.4,59.0,63.9,58.1,53.3,87,71,50,30.04,29.90,11,2,13,0.00
2013-7-26,83.9,70.0,55.7,65.3,60.0,53.9,95,73,46,30.08,29.98,6,1,10,0.00
2013-7-27,79.9,72.1,62.9,71.8,67.1,60.8,95,85,73,30.00,29.87,12,2,19,0.00
2013-7-28,85.6,74.3,66.7,71.3,67.8,65.2,95,82,55,29.97,29.83,9,2,14,0.18
2013-7-29,81.9,70.3,58.1,65.0,59.7,56.4,95,71,47,30.15,29.97,10,2,12,0.00
2013-7-30,82.8,70.4,56.4,73.0,60.9,54.4,94,74,48,30.27,30.10,7,1,10,0.00
2013-7-31,79.3,68.9,61.4,70.3,65.1,59.7,96,88,71,30.12,29.97,11,1,18,0.41
2013-8-1,85.0,71.8,66.3,73.5,67.9,64.4,97,89,60,29.97,29.79,12,2,14,0.19
2013-8-2,85.8,74.0,62.1,70.2,64.4,60.9,97,75,44,29.94,29.85,15,2,18,0.01
2013-8-3,73.5,69.2,65.8,69.7,65.4,61.7,96,88,75,29.95,29.90,7,1,9,0.10
2013-8-4,79.8,70.4,60.6,65.4,60.9,56.8,97,74,47,30.02,29.92,16,3,19,0.01
2013-8-5,81.8,68.9,55.9,62.1,58.3,53.3,94,71,46,30.09,29.97,17,1,17,0.00
2013-8-6,79.3,70.2,63.9,69.1,65.3,60.7,96,85,67,30.02,29.95,11,3,14,0.06
2013-8-7,85.5,74.6,67.1,73.4,70.0,65.7,97,86,63,30.02,29.93,14,3,17,0.04
2013-8-8,85.3,76.3,70.4,76.9,72.4,69.2,97,88,71,29.98,29.91,14,2,15,0.06
2013-8-9,87.6,79.3,73.4,77.9,73.5,71.4,95,83,62,29.94,29.84,12,2,17,0.00
2013-8-10,84.3,76.2,70.0,73.0,68.6,64.1,96,79,54,30.27,29.92,5,1,9,0.00
2013-8-11,85.6,75.7,68.8,72.4,69.3,66.7,96,82,59,30.07,29.96,12,2,14,0.00
2013-8-12,88.9,78.3,69.1,73.3,69.9,67.7,97,77,53,30.00,29.86,11,2,12,0.00
2013-8-13,87.1,74.7,68.5,73.2,69.4,63.8,97,85,55,29.86,29.70,11,2,17,0.44
2013-8-14,72.9,65.8,57.5,63.0,53.8,49.7,82,66,51,30.10,29.82,15,4,21,0.00
2013-8-15,77.3,63.7,50.1,73.0,53.1,48.2,95,72,42,30.27,30.07,7,1,11,0.00
2013-8-16,79.7,66.0,52.1,61.0,56.1,49.8,95,73,46,30.17,30.10,9,2,13,0.00
2013-8-17,80.0,67.0,52.1,62.2,58.2,50.4,96,75,52,30.25,30.17,12,2,18,0.00
2013-8-18,68.9,65.4,63.4,63.4,62.3,61.1,96,90,80,30.23,30.16,6,1,11,0.12
2013-8-19,79.5,69.3,62.2,70.9,65.7,60.8,97,89,73,30.16,30.02,6,1,10,0.00
2013-8-20,87.4,74.5,64.7,73.0,67.6,63.5,98,81,54,30.27,30.06,11,1,13,0.01
2013-8-21,88.2,75.0,65.8,75.2,69.2,64.3,97,83,61,30.17,30.03,11,2,15,0.11
2013-8-22,86.2,76.3,66.9,73.0,68.2,65.7,97,78,55,30.27,29.91,10,2,15,0.02
2013-8-23,73.7,68.7,61.3,68.2,65.4,59.3,97,90,73,30.12,29.91,7,1,11,2.32
2013-8-24,80.2,67.4,57.1,67.3,60.4,55.7,98,81,46,30.31,30.11,7,1,12,0.01
2013-8-25,82.2,68.7,55.0,66.7,60.9,53.6,97,78,52,30.39,30.23,9,2,13,0.01
2013-8-26,86.8,74.1,61.8,69.6,63.9,58.5,92,72,49,30.25,29.99,11,2,13,0.00
2013-8-27,86.5,78.0,70.0,75.6,69.4,63.9,84,75,66,29.99,29.87,16,3,16,0.00
2013-8-28,76.9,73.6,70.3,73.8,71.1,68.5,97,92,84,30.27,29.76,7,2,13,0.25
2013-8-29,83.2,75.6,69.3,73.0,71.0,67.5,98,87,65,30.27,29.81,11,2,12,0.03
2013-8-30,87.2,75.8,64.2,74.0,69.2,63.0,98,82,55,30.27,29.83,14,2,18,0.01
2013-8-31,88.5,78.8,72.4,75.4,71.3,68.3,89,79,60,30.27,29.75,12,2,12,0.00
2013-9-1,89.1,74.9,67.1,75.4,69.7,65.6,96,85,57,30.27,29.73,24,2,27,1.43
2013-9-2,88.7,78.2,69.4,75.2,71.9,68.5,98,82,58,30.27,29.68,10,2,11,0.00
2013-9-3,83.8,74.8,64.5,73.0,63.8,56.8,90,70,48,30.27,29.71,14,3,18,0.00
2013-9-4,81.4,69.4,57.2,73.0,59.7,54.8,94,73,50,30.27,29.96,7,1,14,0.00
2013-9-5,82.1,69.9,58.5,73.0,60.2,53.5,94,73,53,30.27,30.00,14,2,17,0.00
2013-9-6,76.9,63.6,50.7,73.0,53.0,47.9,93,71,39,30.27,30.10,6,1,12,0.00
2013-9-7,81.5,66.2,50.9,73.0,57.8,49.2,95,77,48,30.27,29.92,6,1,8,0.00
2013-9-8,87.4,73.1,61.5,73.0,64.8,58.5,92,77,54,30.27,29.84,9,2,12,0.00
2013-9-9,77.8,69.7,62.6,73.0,61.6,53.5,88,76,62,30.27,30.01,12,3,14,0.00
2013-9-10,91.6,79.5,67.0,75.9,71.0,64.0,92,76,55,30.27,30.03,10,2,11,0.00
2013-9-11,91.6,80.3,71.5,77.4,72.9,69.6,95,80,57,30.27,29.96,11,2,12,0.00
2013-9-12,89.0,75.8,69.8,75.7,69.8,65.2,96,83,58,30.27,29.72,18,3,25,0.00
2013-9-13,76.8,67.9,57.9,73.0,57.6,49.3,90,71,46,30.27,29.70,21,4,23,0.00
2013-9-14,76.8,58.1,47.6,73.0,48.0,44.0,89,70,51,30.27,29.95,13,2,16,0.00
2013-9-15,77.4,61.9,45.7,73.0,53.6,44.1,95,76,51,30.27,30.04,12,2,16,0.00
2013-9-16,69.9,63.5,57.9,61.8,58.1,54.9,94,83,65,30.22,30.01,12,1,14,0.00
2013-9-17,76.8,58.4,46.6,73.0,47.7,41.9,93,70,39,30.41,30.22,12,2,15,0.00
2013-9-18,76.8,56.5,41.4,73.0,48.4,39.5,95,76,52,30.32,30.15,11,2,13,0.00
2013-9-19,76.8,62.4,49.3,73.0,56.1,47.4,95,81,64,30.27,30.04,9,1,11,0.00
2013-9-20,80.1,67.6,55.2,73.0,61.3,53.8,97,81,62,30.27,29.90,15,3,18,0.00
2013-9-21,76.8,66.0,60.6,73.0,63.3,59.5,96,91,79,30.27,29.65,13,3,25,0.52
2013-9-22,76.8,62.8,53.5,73.0,55.4,47.1,97,78,52,30.27,29.72,11,2,16,0.01
2013-9-23,76.8,57.1,47.9,73.0,47.6,44.1,91,72,53,30.27,29.95,11,2,15,0.00
2013-9-24,73.5,56.2,40.7,55.8,48.8,38.9,96,79,50,30.12,29.93,7,1,8,0.01
2013-9-25,76.8,59.0,45.3,73.0,50.8,43.7,97,77,43,30.27,29.86,6,1,10,0.01
2013-9-26,76.8,61.4,49.4,73.0,52.4,47.8,96,75,40,30.27,29.91,10,1,12,0.00
2013-9-27,76.8,59.4,46.3,73.0,52.9,44.7,96,81,52,30.27,30.05,5,1,7,0.00
2013-9-28,76.8,58.9,48.1,73.0,53.9,46.6,97,85,63,30.30,30.20,6,1,10,0.01
2013-9-29,76.8,59.3,45.5,73.0,51.8,44.2,97,79,49,30.27,30.03,8,1,11,0.00
2013-9-30,78.1,61.9,47.7,73.0,53.4,46.1,96,76,47,30.27,29.94,6,1,12,0.01
2013-10-1,82.0,68.6,55.8,73.0,58.9,52.9,94,73,47,30.27,29.95,13,2,16,0.00
2013-10-2,85.7,70.1,57.0,73.0,59.8,54.4,92,72,47,30.27,29.98,11,2,14,0.00
2013-10-3,84.9,69.9,57.9,73.0,62.2,55.9,95,78,55,30.27,30.00,6,1,12,0.00
2013-10-4,87.2,72.9,60.6,68.9,64.2,58.4,95,76,50,30.08,29.98,10,1,11,0.00
2013-10-5,88.2,75.5,63.4,73.0,65.4,61.3,94,73,46,30.27,29.95,10,2,14,0.00
2013-10-6,88.4,75.2,61.8,73.0,64.9,60.1,95,73,48,30.27,29.83,18,4,23,0.00
2013-10-7,76.8,65.3,52.4,73.0,59.5,45.4,96,82,61,30.27,29.67,14,4,33,0.62
2013-10-8,67.9,55.7,44.5,51.2,46.7,42.9,96,74,47,30.27,30.06,12,2,15,0.01
2013-10-9,60.2,52.9,45.6,51.5,47.7,43.6,95,83,64,30.34,30.23,8,1,12,0.01
2013-10-10,54.4,53.2,51.7,53.6,51.6,49.5,97,94,90,30.23,30.03,7,1,7,1.82
2013-10-11,76.8,56.9,53.6,73.0,56.2,52.8,100,98,88,30.27,29.97,4,0,10,0.86
2013-10-12,76.8,60.9,58.2,73.0,60.2,57.4,98,98,88,30.27,29.99,7,2,13,0.43
2013-10-13,76.8,58.1,57.3,73.0,57.5,56.5,98,98,88,30.30,30.16,9,2,11,0.31
2013-10-14,67.0,59.1,54.2,58.8,56.2,53.6,98,91,74,30.32,30.21,4,1,9,0.00
2013-10-15,76.8,58.9,51.5,73.0,54.7,50.5,98,87,59,30.27,30.06,6,0,6,0.01
2013-10-16,76.8,61.5,51.6,73.0,57.2,50.2,98,87,68,30.27,29.87,9,1,11,0.00
2013-10-17,75.5,65.7,58.5,66.8,61.6,52.0,96,87,67,29.87,29.67,12,1,15,0.15
2013-10-18,76.8,57.9,46.5,73.0,45.5,42.2,89,65,42,30.27,29.84,14,3,17,0.00
2013-10-19,63.4,52.0,42.7,55.5,47.8,41.1,96,86,70,29.98,29.74,11,1,15,0.05
2013-10-20,63.4,52.4,41.0,44.7,39.2,35.3,82,62,41,30.08,29.89,14,2,17,0.00
2013-10-21,76.8,53.0,37.7,73.0,42.7,35.0,93,70,44,30.27,29.90,15,3,19,0.00
2013-10-22,76.8,54.5,40.6,73.0,45.7,36.0,88,73,50,30.27,29.80,11,2,15,0.00
2013-10-23,53.9,44.9,37.8,42.4,38.2,35.1,93,78,56,29.92,29.68,10,2,17,0.00
2013-10-24,76.8,44.0,37.4,73.0,32.9,29.7,88,66,46,30.27,29.92,17,2,26,0.00
2013-10-25,54.1,41.5,31.2,36.9,31.2,27.4,87,68,48,30.33,30.14,16,2,22,0.00
2013-10-26,76.8,44.6,29.1,73.0,30.6,25.4,89,61,38,30.31,29.91,15,4,24,0.00
2013-10-27,76.8,51.7,39.2,73.0,37.1,34.2,88,58,41,30.27,29.95,14,2,24,0.00
2013-10-28,76.8,47.3,33.4,73.0,38.6,31.1,93,74,47,30.27,30.12,4,0,7,0.00
2013-10-29,76.8,48.8,35.3,73.0,41.0,33.2,94,76,52,30.38,30.26,5,1,6,0.00
2013-10-30,70.1,57.9,47.4,58.1,50.9,43.1,89,78,60,30.28,30.10,6,1,7,0.00
2013-10-31,76.8,61.7,55.4,73.0,57.1,52.4,93,85,72,30.27,29.67,11,1,16,0.01
2013-11-1,76.8,67.6,52.5,73.0,54.2,45.7,92,65,35,30.27,29.50,23,5,30,0.23
2013-11-2,76.8,53.6,43.2,73.0,44.3,38.6,95,72,48,30.27,29.64,15,3,25,0.00
2013-11-3,76.8,49.5,37.4,73.0,33.7,24.5,88,56,33,30.43,29.89,15,3,19,0.00
2013-11-4,76.8,38.1,28.5,73.0,26.6,23.1,88,64,46,30.63,30.27,6,1,9,0.00
2013-11-5,53.7,44.0,32.6,43.0,35.1,27.5,89,72,51,30.62,30.42,6,1,7,0.00
2013-11-6,70.9,57.8,45.8,53.7,48.6,41.8,91,72,53,30.43,30.00,22,4,23,0.00
2013-11-7,76.8,54.7,42.6,73.0,45.2,25.8,92,71,50,30.27,29.84,19,4,24,0.06
2013-11-8,76.8,43.9,31.8,73.0,28.1,25.0,88,54,41,30.31,30.08,16,3,25,0.00
2013-11-9,76.8,43.8,28.1,73.0,29.8,24.7,92,61,35,30.33,30.01,19,3,21,0.00
2013-11-10,76.8,48.8,37.0,73.0,32.3,28.5,88,54,34,30.27,29.96,21,5,26,0.00
2013-11-11,76.8,49.6,36.7,73.0,31.5,28.0,88,51,37,30.30,29.97,13,2,16,0.00
2013-11-12,52.6,39.6,31.0,39.5,25.2,17.0,72,56,45,30.43,29.96,17,5,24,0.00
2013-11-13,43.8,34.9,27.4,23.3,20.1,16.9,67,55,39,30.51,30.37,13,3,18,0.00
2013-11-14,76.8,42.5,25.6,73.0,21.8,15.7,88,47,22,30.38,30.19,8,1,11,0.00
2013-11-15,64.4,46.6,29.3,40.6,27.1,21.4,78,50,22,30.27,30.14,8,1,11,0.03
2013-11-16,76.8,51.2,44.8,73.0,47.0,40.6,98,86,69,30.28,30.17,11,2,16,0.03
2013-11-17,76.8,57.7,51.4,73.0,54.5,49.5,95,89,81,30.27,29.66,11,3,16,0.02
2013-11-18,76.8,58.9,48.8,73.0,38.5,29.2,88,49,27,30.27,29.64,26,7,37,0.25
2013-11-19,76.8,42.6,34.4,73.0,28.3,25.6,88,57,48,30.38,29.94,15,4,28,0.00
2013-11-20,46.7,36.0,26.9,30.4,25.4,22.5,90,67,40,30.55,30.37,8,1,12,0.00
2013-11-21,76.8,40.5,29.7,73.0,33.9,25.3,88,77,66,30.56,30.27,6,1,7,0.00
2013-11-22,66.6,56.5,43.9,54.1,49.1,39.7,89,77,63,30.34,29.99,14,1,18,0.00
2013-11-23,53.4,43.6,29.9,46.7,29.4,16.5,78,58,41,30.24,30.04,21,7,29,0.00
2013-11-24,76.8,26.8,22.2,73.0,9.6,7.2,88,48,38,30.54,30.24,21,8,32,0.00
2013-11-25,76.8,29.4,17.5,73.0,12.6,8.2,88,51,33,30.56,30.27,9,2,13,0.00
2013-11-26,76.8,36.1,34.4,73.0,29.3,15.2,95,79,38,30.29,29.66,11,2,17,1.08
2013-11-27,39.3,35.5,28.7,36.9,29.7,13.1,96,80,51,30.09,29.58,20,5,28,0.09
2013-11-28,39.7,31.9,26.9,24.8,18.4,13.6,77,57,45,30.45,30.09,16,4,27,0.00
2013-11-29,42.3,32.9,24.4,27.5,23.0,18.8,83,68,50,30.71,30.44,14,1,15,0.00
2013-11-30,38.1,30.2,19.2,25.7,22.4,16.0,89,73,59,30.71,30.34,6,1,10,0.00
2013-12-1,46.1,34.6,21.0,33.2,26.9,17.8,89,74,57,30.34,29.99,3,0,4,0.00
2013-12-2,76.8,41.0,36.8,73.0,33.7,31.0,88,75,64,30.27,29.85,4,0,4,0.00
2013-12-3,76.8,43.2,33.5,73.0,36.2,30.6,92,77,55,30.27,29.86,4,0,6,0.00
2013-12-4,58.1,51.6,34.0,49.8,45.2,31.9,94,79,64,30.06,29.95,9,2,12,0.00
2013-12-5,72.5,58.9,45.1,59.8,53.1,42.9,96,82,61,30.02,29.86,19,3,24,0.00
2013-12-6,64.1,47.1,37.8,60.0,45.3,36.5,100,93,84,30.17,29.82,10,3,14,0.51
2013-12-7,41.3,36.2,28.4,36.5,30.3,22.4,95,80,64,30.55,30.14,14,2,25,0.16
2013-12-8,29.3,26.7,25.4,27.7,23.5,21.0,94,88,76,30.58,30.30,6,2,10,0.00
2013-12-9,38.8,33.8,29.3,35.7,32.1,27.8,95,93,88,30.30,30.01,3,0,5,0.33
2013-12-10,40.6,34.1,30.1,38.6,27.8,16.3,96,79,50,30.21,29.98,17,2,25,0.31
2013-12-11,42.0,30.1,17.5,22.4,18.6,11.8,84,63,42,30.38,30.20,9,2,12,0.23
2013-12-12,35.3,29.5,22.0,23.5,12.9,6.2,75,51,34,30.44,30.25,15,3,19,0.02
2013-12-13,43.3,31.5,21.3,22.7,17.0,8.5,72,56,34,30.29,30.20,15,3,19,0.10
2013-12-14,35.7,33.1,30.3,33.1,29.8,22.3,94,87,71,30.30,29.74,7,1,12,0.17
2013-12-15,45.2,37.6,33.8,38.8,30.3,24.1,96,76,58,29.93,29.64,20,4,26,0.21
2013-12-16,37.6,35.0,32.2,28.9,27.4,26.5,81,74,67,30.15,29.92,14,2,17,0.01
2013-12-17,44.8,36.0,31.5,34.9,30.7,27.5,89,81,67,30.11,29.91,10,1,11,0.02
2013-12-18,43.8,35.8,27.6,29.7,24.3,21.7,90,64,45,30.20,29.99,16,3,20,0.00
2013-12-19,64.8,45.1,27.0,38.1,28.1,21.1,79,54,31,30.18,30.03,13,2,21,0.00
2013-12-20,60.9,53.1,45.7,40.2,34.0,29.7,57,48,37,30.06,29.95,13,3,14,0.00
2013-12-21,73.3,63.0,48.9,59.5,49.8,39.2,73,62,52,29.97,29.81,22,5,33,0.00
2013-12-22,72.4,64.8,60.4,63.6,59.1,56.1,95,82,71,29.96,29.73,21,6,30,0.37
2013-12-23,61.2,52.1,36.0,59.0,47.1,27.2,96,83,66,30.24,29.86,16,3,23,0.37
2013-12-24,40.5,31.7,21.7,28.9,20.8,10.0,79,64,47,30.49,30.21,23,4,29,0.00
2013-12-25,34.4,26.1,18.9,18.0,14.7,10.9,80,62,47,30.58,30.33,9,1,11,0.00
2013-12-26,47.2,34.4,23.4,28.6,20.1,14.7,76,57,38,30.35,30.21,17,2,23,0.00
2013-12-27,52.8,38.0,24.6,26.0,21.9,18.5,83,54,29,30.41,30.29,10,2,14,0.00
2013-12-28,57.9,44.1,29.0,31.5,26.4,21.2,76,52,33,30.32,30.08,18,3,21,0.00
2013-12-29,48.8,44.6,40.6,46.4,39.5,27.4,96,84,49,30.08,29.56,21,2,21,0.33
2013-12-30,47.4,40.5,31.0,40.4,32.6,25.2,80,73,67,30.16,29.81,11,3,18,0.00
2013-12-31,45.2,34.5,27.2,30.9,24.5,19.0,88,68,44,30.27,30.10,27,4,33,0.00
2014-1-1,49.6,41.0,24.1,30.2,27.2,18.5,86,59,46,30.39,30.08,11,2,13,0.00
2014-1-2,36.8,31.2,27.6,29.6,27.5,24.2,93,86,67,30.08,29.64,5,0,7,0.00